sensor_id;sensor_type;location;lat;lon;timestamp;P1;durP1;ratioP1;P2;durP2;ratioP2
21168;SDS011;10742;51.816;8.662;2022-07-23T00:01:10;1999.90;;;999.90;;
21168;SDS011;10742;51.816;8.662;2022-07-23T00:04:31;1999.90;;;999.90;;
21168;SDS011;10742;51.816;8.662;2022-07-23T00:07:53;1999.90;;;999.90;;
21168;SDS011;10742;51.816;8.662;2022-07-23T00:11:15;1999.90;;;999.90;;
21168;SDS011;10742;51.816;8.662;2022-07-23T00:14:37;1999.90;;;999.90;;
21168;SDS011;10742;51.816;8.662;2022-07-23T00:17:58;1999.90;;;999.90;;
21168;SDS011;10742;51.816;8.662;2022-07-23T00:21:19;1999.90;;;999.90;;
21168;SDS011;10742;51.816;8.662;2022-07-23T00:24:41;1999.90;;;999.90;;
21168;SDS011;10742;51.816;8.662;2022-07-23T00:28:03;1999.90;;;999.90;;
21168;SDS011;10742;51.816;8.662;2022-07-23T00:31:24;1999.90;;;999.90;;
21168;SDS011;10742;51.816;8.662;2022-07-23T00:34:45;1999.90;;;999.90;;
21168;SDS011;10742;51.816;8.662;2022-07-23T00:38:08;1999.90;;;999.90;;
21168;SDS011;10742;51.816;8.662;2022-07-23T00:41:30;1999.90;;;999.90;;
21168;SDS011;10742;51.816;8.662;2022-07-23T00:44:51;1999.90;;;999.90;;
21168;SDS011;10742;51.816;8.662;2022-07-23T00:48:13;1999.90;;;999.90;;
21168;SDS011;10742;51.816;8.662;2022-07-23T00:51:34;1999.90;;;999.90;;
21168;SDS011;10742;51.816;8.662;2022-07-23T00:54:55;1999.90;;;999.90;;
21168;SDS011;10742;51.816;8.662;2022-07-23T00:58:17;1999.90;;;999.90;;
21168;SDS011;10742;51.816;8.662;2022-07-23T01:01:39;1999.90;;;999.90;;
21168;SDS011;10742;51.816;8.662;2022-07-23T01:05:01;1999.90;;;999.90;;
21168;SDS011;10742;51.816;8.662;2022-07-23T01:08:23;1999.90;;;999.90;;
21168;SDS011;10742;51.816;8.662;2022-07-23T01:11:46;1999.90;;;999.90;;
21168;SDS011;10742;51.816;8.662;2022-07-23T01:15:08;1999.90;;;999.90;;
21168;SDS011;10742;51.816;8.662;2022-07-23T01:18:29;1999.90;;;999.90;;
21168;SDS011;10742;51.816;8.662;2022-07-23T01:21:51;1999.90;;;999.90;;
21168;SDS011;10742;51.816;8.662;2022-07-23T01:25:13;1999.90;;;999.90;;
21168;SDS011;10742;51.816;8.662;2022-07-23T01:28:43;1999.90;;;999.90;;
21168;SDS011;10742;51.816;8.662;2022-07-23T01:32:05;1999.90;;;999.90;;
21168;SDS011;10742;51.816;8.662;2022-07-23T01:35:27;1999.90;;;999.90;;
21168;SDS011;10742;51.816;8.662;2022-07-23T01:38:52;1999.90;;;999.90;;
21168;SDS011;10742;51.816;8.662;2022-07-23T01:42:14;1999.90;;;999.90;;
21168;SDS011;10742;51.816;8.662;2022-07-23T01:45:35;1999.90;;;999.90;;
21168;SDS011;10742;51.816;8.662;2022-07-23T01:48:57;1999.90;;;999.90;;
21168;SDS011;10742;51.816;8.662;2022-07-23T01:52:36;1999.90;;;999.90;;
21168;SDS011;10742;51.816;8.662;2022-07-23T01:55:59;1999.90;;;999.90;;
21168;SDS011;10742;51.816;8.662;2022-07-23T01:59:22;1999.90;;;999.90;;
21168;SDS011;10742;51.816;8.662;2022-07-23T02:02:44;1999.90;;;999.90;;
21168;SDS011;10742;51.816;8.662;2022-07-23T02:06:06;1999.90;;;999.90;;
21168;SDS011;10742;51.816;8.662;2022-07-23T02:09:28;1999.90;;;999.90;;
21168;SDS011;10742;51.816;8.662;2022-07-23T02:12:49;1999.90;;;999.90;;
21168;SDS011;10742;51.816;8.662;2022-07-23T02:16:10;1999.90;;;999.90;;
21168;SDS011;10742;51.816;8.662;2022-07-23T02:19:31;1999.90;;;999.90;;
21168;SDS011;10742;51.816;8.662;2022-07-23T02:22:55;1999.90;;;999.90;;
21168;SDS011;10742;51.816;8.662;2022-07-23T02:26:17;1999.90;;;999.90;;
21168;SDS011;10742;51.816;8.662;2022-07-23T02:29:43;1999.90;;;999.90;;
21168;SDS011;10742;51.816;8.662;2022-07-23T02:33:07;1999.90;;;999.90;;
21168;SDS011;10742;51.816;8.662;2022-07-23T02:36:32;1999.90;;;999.90;;
21168;SDS011;10742;51.816;8.662;2022-07-23T02:39:57;1999.90;;;999.90;;
21168;SDS011;10742;51.816;8.662;2022-07-23T02:43:24;1999.90;;;999.90;;
21168;SDS011;10742;51.816;8.662;2022-07-23T02:46:49;1999.90;;;999.90;;
21168;SDS011;10742;51.816;8.662;2022-07-23T02:50:12;1999.90;;;999.90;;
21168;SDS011;10742;51.816;8.662;2022-07-23T02:53:37;1999.90;;;999.90;;
21168;SDS011;10742;51.816;8.662;2022-07-23T02:57:01;1999.90;;;999.90;;
21168;SDS011;10742;51.816;8.662;2022-07-23T03:00:26;1999.90;;;999.90;;
21168;SDS011;10742;51.816;8.662;2022-07-23T03:03:50;1999.90;;;999.90;;
21168;SDS011;10742;51.816;8.662;2022-07-23T03:07:16;1999.90;;;999.90;;
21168;SDS011;10742;51.816;8.662;2022-07-23T03:10:39;1999.90;;;999.90;;
21168;SDS011;10742;51.816;8.662;2022-07-23T03:14:09;1999.90;;;999.90;;
21168;SDS011;10742;51.816;8.662;2022-07-23T03:17:35;1999.90;;;999.90;;
21168;SDS011;10742;51.816;8.662;2022-07-23T03:20:58;1999.90;;;999.90;;
21168;SDS011;10742;51.816;8.662;2022-07-23T03:24:21;1999.90;;;999.90;;
21168;SDS011;10742;51.816;8.662;2022-07-23T03:27:45;1999.90;;;999.90;;
21168;SDS011;10742;51.816;8.662;2022-07-23T03:31:08;1999.90;;;999.90;;
21168;SDS011;10742;51.816;8.662;2022-07-23T03:34:33;1999.90;;;999.90;;
21168;SDS011;10742;51.816;8.662;2022-07-23T03:37:55;1999.90;;;999.90;;
21168;SDS011;10742;51.816;8.662;2022-07-23T03:41:20;1999.90;;;999.90;;
21168;SDS011;10742;51.816;8.662;2022-07-23T03:44:43;1999.90;;;999.90;;
21168;SDS011;10742;51.816;8.662;2022-07-23T03:48:05;1999.90;;;999.90;;
21168;SDS011;10742;51.816;8.662;2022-07-23T03:51:28;1999.90;;;999.90;;
21168;SDS011;10742;51.816;8.662;2022-07-23T03:54:52;1999.90;;;999.90;;
21168;SDS011;10742;51.816;8.662;2022-07-23T03:58:17;1999.90;;;999.90;;
21168;SDS011;10742;51.816;8.662;2022-07-23T04:01:39;1999.90;;;999.90;;
21168;SDS011;10742;51.816;8.662;2022-07-23T04:05:03;1999.90;;;999.90;;
21168;SDS011;10742;51.816;8.662;2022-07-23T04:08:26;1999.90;;;999.90;;
21168;SDS011;10742;51.816;8.662;2022-07-23T04:11:49;1999.90;;;999.90;;
21168;SDS011;10742;51.816;8.662;2022-07-23T04:15:13;1999.90;;;999.90;;
21168;SDS011;10742;51.816;8.662;2022-07-23T04:18:36;1999.90;;;999.90;;
21168;SDS011;10742;51.816;8.662;2022-07-23T04:22:09;1999.90;;;999.90;;
21168;SDS011;10742;51.816;8.662;2022-07-23T04:25:33;1999.90;;;999.90;;
21168;SDS011;10742;51.816;8.662;2022-07-23T04:28:56;1999.90;;;999.90;;
21168;SDS011;10742;51.816;8.662;2022-07-23T04:32:19;1999.90;;;999.90;;
21168;SDS011;10742;51.816;8.662;2022-07-23T04:35:42;1999.90;;;999.90;;
21168;SDS011;10742;51.816;8.662;2022-07-23T04:39:11;1999.90;;;999.90;;
21168;SDS011;10742;51.816;8.662;2022-07-23T04:42:36;1999.90;;;999.90;;
21168;SDS011;10742;51.816;8.662;2022-07-23T04:45:58;1999.90;;;999.90;;
21168;SDS011;10742;51.816;8.662;2022-07-23T04:49:31;1999.90;;;999.90;;
21168;SDS011;10742;51.816;8.662;2022-07-23T04:52:54;1999.90;;;999.90;;
21168;SDS011;10742;51.816;8.662;2022-07-23T04:56:19;1999.90;;;999.90;;
21168;SDS011;10742;51.816;8.662;2022-07-23T04:59:42;1999.90;;;999.90;;
21168;SDS011;10742;51.816;8.662;2022-07-23T05:03:06;1999.90;;;999.90;;
21168;SDS011;10742;51.816;8.662;2022-07-23T05:06:29;1999.90;;;999.90;;
21168;SDS011;10742;51.816;8.662;2022-07-23T05:09:52;1999.90;;;999.90;;
21168;SDS011;10742;51.816;8.662;2022-07-23T05:13:15;1999.90;;;999.90;;
21168;SDS011;10742;51.816;8.662;2022-07-23T05:16:38;1999.90;;;999.90;;
21168;SDS011;10742;51.816;8.662;2022-07-23T05:20:07;1999.90;;;999.90;;
21168;SDS011;10742;51.816;8.662;2022-07-23T05:23:31;1999.90;;;999.90;;
21168;SDS011;10742;51.816;8.662;2022-07-23T05:26:54;1999.90;;;999.90;;
21168;SDS011;10742;51.816;8.662;2022-07-23T05:30:17;1999.90;;;999.90;;
21168;SDS011;10742;51.816;8.662;2022-07-23T05:33:43;1999.90;;;999.90;;
21168;SDS011;10742;51.816;8.662;2022-07-23T05:37:05;1999.90;;;999.90;;
21168;SDS011;10742;51.816;8.662;2022-07-23T05:40:27;1999.90;;;999.90;;
21168;SDS011;10742;51.816;8.662;2022-07-23T05:43:48;1999.90;;;999.90;;
21168;SDS011;10742;51.816;8.662;2022-07-23T05:47:12;1999.90;;;999.90;;
21168;SDS011;10742;51.816;8.662;2022-07-23T05:50:35;1999.90;;;999.90;;
21168;SDS011;10742;51.816;8.662;2022-07-23T05:54:21;1999.90;;;999.90;;
21168;SDS011;10742;51.816;8.662;2022-07-23T05:57:44;1999.90;;;999.90;;
21168;SDS011;10742;51.816;8.662;2022-07-23T06:01:06;1999.90;;;999.90;;
21168;SDS011;10742;51.816;8.662;2022-07-23T06:04:38;1999.90;;;999.90;;
21168;SDS011;10742;51.816;8.662;2022-07-23T06:08:14;1999.90;;;999.90;;
21168;SDS011;10742;51.816;8.662;2022-07-23T06:11:36;1999.90;;;999.90;;
21168;SDS011;10742;51.816;8.662;2022-07-23T06:15:04;1999.90;;;999.90;;
21168;SDS011;10742;51.816;8.662;2022-07-23T06:18:27;1999.90;;;999.90;;
21168;SDS011;10742;51.816;8.662;2022-07-23T06:21:48;1999.90;;;999.90;;
21168;SDS011;10742;51.816;8.662;2022-07-23T06:25:10;1999.90;;;999.90;;
21168;SDS011;10742;51.816;8.662;2022-07-23T06:28:32;1999.90;;;999.90;;
21168;SDS011;10742;51.816;8.662;2022-07-23T06:31:53;1999.90;;;999.90;;
21168;SDS011;10742;51.816;8.662;2022-07-23T06:35:16;1999.90;;;999.90;;
21168;SDS011;10742;51.816;8.662;2022-07-23T06:38:40;1999.90;;;999.90;;
21168;SDS011;10742;51.816;8.662;2022-07-23T06:42:01;1999.90;;;998.30;;
21168;SDS011;10742;51.816;8.662;2022-07-23T06:45:32;1999.90;;;999.90;;
21168;SDS011;10742;51.816;8.662;2022-07-23T06:48:55;1999.90;;;982.50;;
21168;SDS011;10742;51.816;8.662;2022-07-23T06:52:18;1999.90;;;864.25;;
21168;SDS011;10742;51.816;8.662;2022-07-23T06:55:42;1999.90;;;733.97;;
21168;SDS011;10742;51.816;8.662;2022-07-23T06:59:05;1999.90;;;677.35;;
21168;SDS011;10742;51.816;8.662;2022-07-23T07:02:28;1975.20;;;558.83;;
21168;SDS011;10742;51.816;8.662;2022-07-23T07:05:49;1999.90;;;601.30;;
21168;SDS011;10742;51.816;8.662;2022-07-23T07:09:12;746.10;;;257.13;;
21168;SDS011;10742;51.816;8.662;2022-07-23T07:12:34;468.25;;;151.30;;
21168;SDS011;10742;51.816;8.662;2022-07-23T07:15:57;861.95;;;282.30;;
21168;SDS011;10742;51.816;8.662;2022-07-23T07:19:21;668.92;;;213.90;;
21168;SDS011;10742;51.816;8.662;2022-07-23T07:22:44;315.45;;;104.80;;
21168;SDS011;10742;51.816;8.662;2022-07-23T07:26:08;278.98;;;93.00;;
21168;SDS011;10742;51.816;8.662;2022-07-23T07:29:31;50.88;;;27.77;;
21168;SDS011;10742;51.816;8.662;2022-07-23T07:32:55;58.75;;;27.48;;
21168;SDS011;10742;51.816;8.662;2022-07-23T07:36:17;17.48;;;10.02;;
21168;SDS011;10742;51.816;8.662;2022-07-23T07:39:40;18.73;;;9.18;;
21168;SDS011;10742;51.816;8.662;2022-07-23T07:43:03;12.30;;;7.18;;
21168;SDS011;10742;51.816;8.662;2022-07-23T07:46:25;13.30;;;7.47;;
21168;SDS011;10742;51.816;8.662;2022-07-23T07:49:52;12.88;;;6.65;;
21168;SDS011;10742;51.816;8.662;2022-07-23T07:53:14;12.25;;;5.82;;
21168;SDS011;10742;51.816;8.662;2022-07-23T07:56:35;7.75;;;5.32;;
21168;SDS011;10742;51.816;8.662;2022-07-23T07:59:57;12.70;;;5.00;;
21168;SDS011;10742;51.816;8.662;2022-07-23T08:03:31;10.00;;;5.00;;
21168;SDS011;10742;51.816;8.662;2022-07-23T08:06:52;10.80;;;4.53;;
21168;SDS011;10742;51.816;8.662;2022-07-23T08:10:14;8.65;;;4.45;;
21168;SDS011;10742;51.816;8.662;2022-07-23T08:13:36;10.10;;;4.43;;
21168;SDS011;10742;51.816;8.662;2022-07-23T08:16:57;7.20;;;4.18;;
21168;SDS011;10742;51.816;8.662;2022-07-23T08:20:34;15.43;;;5.38;;
21168;SDS011;10742;51.816;8.662;2022-07-23T08:23:56;6.47;;;4.13;;
21168;SDS011;10742;51.816;8.662;2022-07-23T08:27:18;12.25;;;4.50;;
21168;SDS011;10742;51.816;8.662;2022-07-23T08:30:40;10.85;;;5.32;;
21168;SDS011;10742;51.816;8.662;2022-07-23T08:34:02;8.05;;;4.03;;
21168;SDS011;10742;51.816;8.662;2022-07-23T08:37:24;7.97;;;4.25;;
21168;SDS011;10742;51.816;8.662;2022-07-23T08:40:47;10.18;;;3.97;;
21168;SDS011;10742;51.816;8.662;2022-07-23T08:44:09;16.02;;;4.63;;
21168;SDS011;10742;51.816;8.662;2022-07-23T08:47:32;7.97;;;4.20;;
21168;SDS011;10742;51.816;8.662;2022-07-23T08:50:56;10.40;;;3.88;;
21168;SDS011;10742;51.816;8.662;2022-07-23T08:54:18;9.65;;;4.32;;
21168;SDS011;10742;51.816;8.662;2022-07-23T08:57:41;6.45;;;3.95;;
21168;SDS011;10742;51.816;8.662;2022-07-23T09:01:03;10.50;;;3.88;;
21168;SDS011;10742;51.816;8.662;2022-07-23T09:04:25;11.30;;;4.10;;
21168;SDS011;10742;51.816;8.662;2022-07-23T09:08:03;7.90;;;3.88;;
21168;SDS011;10742;51.816;8.662;2022-07-23T09:11:24;8.35;;;4.15;;
21168;SDS011;10742;51.816;8.662;2022-07-23T09:14:46;11.63;;;4.53;;
21168;SDS011;10742;51.816;8.662;2022-07-23T09:18:11;6.57;;;4.22;;
21168;SDS011;10742;51.816;8.662;2022-07-23T09:21:38;10.57;;;4.32;;
21168;SDS011;10742;51.816;8.662;2022-07-23T09:28:46;48.03;;;7.85;;
21168;SDS011;10742;51.816;8.662;2022-07-23T09:32:16;8.23;;;4.03;;
21168;SDS011;10742;51.816;8.662;2022-07-23T09:39:16;8.60;;;3.88;;
21168;SDS011;10742;51.816;8.662;2022-07-23T09:42:54;8.98;;;3.78;;
21168;SDS011;10742;51.816;8.662;2022-07-23T09:46:16;30.42;;;4.97;;
21168;SDS011;10742;51.816;8.662;2022-07-23T09:49:38;9.70;;;4.32;;
21168;SDS011;10742;51.816;8.662;2022-07-23T09:52:59;8.13;;;4.00;;
21168;SDS011;10742;51.816;8.662;2022-07-23T09:56:21;6.88;;;3.80;;
21168;SDS011;10742;51.816;8.662;2022-07-23T09:59:46;7.75;;;4.05;;
21168;SDS011;10742;51.816;8.662;2022-07-23T10:03:08;6.88;;;3.70;;
21168;SDS011;10742;51.816;8.662;2022-07-23T10:06:34;7.65;;;3.70;;
21168;SDS011;10742;51.816;8.662;2022-07-23T10:10:15;7.82;;;3.35;;
21168;SDS011;10742;51.816;8.662;2022-07-23T10:14:12;6.65;;;3.25;;
21168;SDS011;10742;51.816;8.662;2022-07-23T10:17:48;6.60;;;3.25;;
21168;SDS011;10742;51.816;8.662;2022-07-23T10:21:10;5.07;;;2.47;;
21168;SDS011;10742;51.816;8.662;2022-07-23T10:36:18;6.22;;;3.33;;
21168;SDS011;10742;51.816;8.662;2022-07-23T10:39:42;5.63;;;3.00;;
21168;SDS011;10742;51.816;8.662;2022-07-23T10:43:04;5.03;;;2.90;;
21168;SDS011;10742;51.816;8.662;2022-07-23T10:50:44;6.82;;;2.90;;
21168;SDS011;10742;51.816;8.662;2022-07-23T10:54:27;5.47;;;2.67;;
21168;SDS011;10742;51.816;8.662;2022-07-23T10:57:49;6.57;;;2.70;;
21168;SDS011;10742;51.816;8.662;2022-07-23T11:05:16;4.20;;;2.70;;
21168;SDS011;10742;51.816;8.662;2022-07-23T11:08:39;5.63;;;2.60;;
21168;SDS011;10742;51.816;8.662;2022-07-23T11:15:34;5.22;;;2.70;;
21168;SDS011;10742;51.816;8.662;2022-07-23T11:19:21;3.53;;;2.42;;
21168;SDS011;10742;51.816;8.662;2022-07-23T11:26:04;6.45;;;2.53;;
21168;SDS011;10742;51.816;8.662;2022-07-23T11:32:47;4.20;;;2.53;;
21168;SDS011;10742;51.816;8.662;2022-07-23T11:36:09;5.18;;;2.60;;
21168;SDS011;10742;51.816;8.662;2022-07-23T11:39:31;3.92;;;2.10;;
21168;SDS011;10742;51.816;8.662;2022-07-23T11:46:16;4.47;;;2.25;;
21168;SDS011;10742;51.816;8.662;2022-07-23T11:49:38;4.47;;;2.03;;
21168;SDS011;10742;51.816;8.662;2022-07-23T11:53:00;4.68;;;2.78;;
21168;SDS011;10742;51.816;8.662;2022-07-23T11:56:22;4.82;;;2.15;;
21168;SDS011;10742;51.816;8.662;2022-07-23T11:59:43;3.35;;;2.20;;
21168;SDS011;10742;51.816;8.662;2022-07-23T12:03:08;5.35;;;2.10;;
21168;SDS011;10742;51.816;8.662;2022-07-23T12:06:29;6.85;;;2.50;;
21168;SDS011;10742;51.816;8.662;2022-07-23T12:13:35;4.82;;;2.28;;
21168;SDS011;10742;51.816;8.662;2022-07-23T12:17:06;3.53;;;1.90;;
21168;SDS011;10742;51.816;8.662;2022-07-23T12:20:32;4.05;;;2.20;;
21168;SDS011;10742;51.816;8.662;2022-07-23T12:24:05;9.10;;;2.28;;
21168;SDS011;10742;51.816;8.662;2022-07-23T12:27:28;4.63;;;2.28;;
21168;SDS011;10742;51.816;8.662;2022-07-23T12:34:14;7.75;;;2.30;;
21168;SDS011;10742;51.816;8.662;2022-07-23T12:37:37;3.45;;;2.00;;
21168;SDS011;10742;51.816;8.662;2022-07-23T12:40:59;2.80;;;2.03;;
21168;SDS011;10742;51.816;8.662;2022-07-23T12:44:21;5.78;;;2.50;;
21168;SDS011;10742;51.816;8.662;2022-07-23T12:48:00;6.47;;;2.30;;
21168;SDS011;10742;51.816;8.662;2022-07-23T12:51:27;3.78;;;1.92;;
21168;SDS011;10742;51.816;8.662;2022-07-23T12:54:51;4.45;;;2.28;;
21168;SDS011;10742;51.816;8.662;2022-07-23T12:58:13;3.10;;;1.80;;
21168;SDS011;10742;51.816;8.662;2022-07-23T13:01:38;3.67;;;1.90;;
21168;SDS011;10742;51.816;8.662;2022-07-23T13:05:04;4.80;;;2.20;;
21168;SDS011;10742;51.816;8.662;2022-07-23T13:08:26;5.10;;;2.40;;
21168;SDS011;10742;51.816;8.662;2022-07-23T13:11:49;8.45;;;2.80;;
21168;SDS011;10742;51.816;8.662;2022-07-23T13:15:12;3.45;;;2.10;;
21168;SDS011;10742;51.816;8.662;2022-07-23T13:18:33;2.20;;;2.00;;
21168;SDS011;10742;51.816;8.662;2022-07-23T13:21:54;4.13;;;1.80;;
21168;SDS011;10742;51.816;8.662;2022-07-23T13:25:16;3.63;;;1.95;;
21168;SDS011;10742;51.816;8.662;2022-07-23T13:28:37;4.53;;;2.10;;
21168;SDS011;10742;51.816;8.662;2022-07-23T13:31:59;2.90;;;2.10;;
21168;SDS011;10742;51.816;8.662;2022-07-23T13:35:20;3.45;;;1.50;;
21168;SDS011;10742;51.816;8.662;2022-07-23T13:38:42;4.78;;;1.95;;
21168;SDS011;10742;51.816;8.662;2022-07-23T13:42:03;3.78;;;2.13;;
21168;SDS011;10742;51.816;8.662;2022-07-23T13:45:24;3.30;;;2.00;;
21168;SDS011;10742;51.816;8.662;2022-07-23T13:48:46;3.38;;;1.65;;
21168;SDS011;10742;51.816;8.662;2022-07-23T13:52:07;3.75;;;1.88;;
21168;SDS011;10742;51.816;8.662;2022-07-23T13:55:29;3.88;;;1.70;;
21168;SDS011;10742;51.816;8.662;2022-07-23T13:58:51;6.18;;;2.15;;
21168;SDS011;10742;51.816;8.662;2022-07-23T14:02:13;3.83;;;1.90;;
21168;SDS011;10742;51.816;8.662;2022-07-23T14:05:38;2.65;;;1.58;;
21168;SDS011;10742;51.816;8.662;2022-07-23T14:09:00;5.10;;;1.88;;
21168;SDS011;10742;51.816;8.662;2022-07-23T14:12:21;4.35;;;1.65;;
21168;SDS011;10742;51.816;8.662;2022-07-23T14:15:43;2.72;;;1.48;;
21168;SDS011;10742;51.816;8.662;2022-07-23T14:19:05;3.83;;;1.50;;
21168;SDS011;10742;51.816;8.662;2022-07-23T14:22:26;3.88;;;1.75;;
21168;SDS011;10742;51.816;8.662;2022-07-23T14:25:48;1.98;;;1.58;;
21168;SDS011;10742;51.816;8.662;2022-07-23T14:29:09;4.15;;;1.60;;
21168;SDS011;10742;51.816;8.662;2022-07-23T14:32:31;3.95;;;1.75;;
21168;SDS011;10742;51.816;8.662;2022-07-23T14:35:52;2.85;;;1.55;;
21168;SDS011;10742;51.816;8.662;2022-07-23T14:39:13;2.72;;;1.80;;
21168;SDS011;10742;51.816;8.662;2022-07-23T14:42:35;3.15;;;1.80;;
21168;SDS011;10742;51.816;8.662;2022-07-23T14:45:56;6.25;;;1.60;;
21168;SDS011;10742;51.816;8.662;2022-07-23T14:49:17;4.43;;;1.70;;
21168;SDS011;10742;51.816;8.662;2022-07-23T14:52:39;2.90;;;1.63;;
21168;SDS011;10742;51.816;8.662;2022-07-23T14:56:00;1.70;;;1.60;;
21168;SDS011;10742;51.816;8.662;2022-07-23T14:59:23;1.88;;;1.70;;
21168;SDS011;10742;51.816;8.662;2022-07-23T15:02:45;2.90;;;1.52;;
21168;SDS011;10742;51.816;8.662;2022-07-23T15:06:09;2.35;;;1.70;;
21168;SDS011;10742;51.816;8.662;2022-07-23T15:09:30;2.65;;;1.80;;
21168;SDS011;10742;51.816;8.662;2022-07-23T15:12:52;3.35;;;1.63;;
21168;SDS011;10742;51.816;8.662;2022-07-23T15:16:13;1.85;;;1.63;;
21168;SDS011;10742;51.816;8.662;2022-07-23T15:19:35;2.00;;;1.70;;
21168;SDS011;10742;51.816;8.662;2022-07-23T15:22:57;3.90;;;1.83;;
21168;SDS011;10742;51.816;8.662;2022-07-23T15:26:18;3.92;;;1.63;;
21168;SDS011;10742;51.816;8.662;2022-07-23T15:29:40;4.20;;;1.50;;
21168;SDS011;10742;51.816;8.662;2022-07-23T15:33:01;1.92;;;1.60;;
21168;SDS011;10742;51.816;8.662;2022-07-23T15:36:22;3.20;;;1.70;;
21168;SDS011;10742;51.816;8.662;2022-07-23T15:39:44;4.38;;;1.50;;
21168;SDS011;10742;51.816;8.662;2022-07-23T15:43:05;3.47;;;1.63;;
21168;SDS011;10742;51.816;8.662;2022-07-23T15:46:26;3.28;;;1.70;;
21168;SDS011;10742;51.816;8.662;2022-07-23T15:49:48;3.38;;;1.90;;
21168;SDS011;10742;51.816;8.662;2022-07-23T15:53:10;2.55;;;1.90;;
21168;SDS011;10742;51.816;8.662;2022-07-23T15:56:31;5.00;;;1.90;;
21168;SDS011;10742;51.816;8.662;2022-07-23T15:59:54;2.92;;;1.77;;
21168;SDS011;10742;51.816;8.662;2022-07-23T16:03:16;3.08;;;1.90;;
21168;SDS011;10742;51.816;8.662;2022-07-23T16:06:38;5.88;;;2.05;;
21168;SDS011;10742;51.816;8.662;2022-07-23T16:10:03;2.10;;;1.75;;
21168;SDS011;10742;51.816;8.662;2022-07-23T16:13:29;2.17;;;1.70;;
21168;SDS011;10742;51.816;8.662;2022-07-23T16:16:50;3.15;;;1.60;;
21168;SDS011;10742;51.816;8.662;2022-07-23T16:20:12;4.55;;;2.17;;
21168;SDS011;10742;51.816;8.662;2022-07-23T16:23:33;5.35;;;2.25;;
21168;SDS011;10742;51.816;8.662;2022-07-23T16:26:54;5.13;;;2.25;;
21168;SDS011;10742;51.816;8.662;2022-07-23T16:30:15;4.35;;;2.20;;
21168;SDS011;10742;51.816;8.662;2022-07-23T16:33:36;3.78;;;1.85;;
21168;SDS011;10742;51.816;8.662;2022-07-23T16:36:58;5.38;;;2.20;;
21168;SDS011;10742;51.816;8.662;2022-07-23T16:40:19;2.30;;;1.63;;
21168;SDS011;10742;51.816;8.662;2022-07-23T16:43:41;3.95;;;2.08;;
21168;SDS011;10742;51.816;8.662;2022-07-23T16:47:02;2.85;;;1.80;;
21168;SDS011;10742;51.816;8.662;2022-07-23T16:50:24;2.65;;;1.77;;
21168;SDS011;10742;51.816;8.662;2022-07-23T16:53:45;4.57;;;2.10;;
21168;SDS011;10742;51.816;8.662;2022-07-23T16:57:06;2.45;;;2.00;;
21168;SDS011;10742;51.816;8.662;2022-07-23T17:00:28;2.95;;;1.80;;
21168;SDS011;10742;51.816;8.662;2022-07-23T17:03:49;3.90;;;1.95;;
21168;SDS011;10742;51.816;8.662;2022-07-23T17:07:11;4.00;;;1.92;;
21168;SDS011;10742;51.816;8.662;2022-07-23T17:10:32;4.30;;;1.92;;
21168;SDS011;10742;51.816;8.662;2022-07-23T17:13:53;6.63;;;2.70;;
21168;SDS011;10742;51.816;8.662;2022-07-23T17:17:15;1.92;;;1.63;;
21168;SDS011;10742;51.816;8.662;2022-07-23T17:20:36;4.68;;;2.00;;
21168;SDS011;10742;51.816;8.662;2022-07-23T17:23:58;5.72;;;2.20;;
21168;SDS011;10742;51.816;8.662;2022-07-23T17:27:19;4.88;;;1.80;;
21168;SDS011;10742;51.816;8.662;2022-07-23T17:30:40;5.03;;;1.83;;
21168;SDS011;10742;51.816;8.662;2022-07-23T17:34:01;4.75;;;1.90;;
21168;SDS011;10742;51.816;8.662;2022-07-23T17:37:23;4.55;;;1.90;;
21168;SDS011;10742;51.816;8.662;2022-07-23T17:40:44;2.95;;;1.63;;
21168;SDS011;10742;51.816;8.662;2022-07-23T17:44:05;3.08;;;1.67;;
21168;SDS011;10742;51.816;8.662;2022-07-23T17:47:27;4.97;;;1.73;;
21168;SDS011;10742;51.816;8.662;2022-07-23T17:50:48;4.10;;;1.90;;
21168;SDS011;10742;51.816;8.662;2022-07-23T17:54:12;2.95;;;1.52;;
21168;SDS011;10742;51.816;8.662;2022-07-23T17:57:34;2.83;;;1.58;;
21168;SDS011;10742;51.816;8.662;2022-07-23T18:00:56;1.75;;;1.65;;
21168;SDS011;10742;51.816;8.662;2022-07-23T18:04:18;2.95;;;1.67;;
21168;SDS011;10742;51.816;8.662;2022-07-23T18:07:40;2.88;;;1.85;;
21168;SDS011;10742;51.816;8.662;2022-07-23T18:11:02;5.53;;;1.80;;
21168;SDS011;10742;51.816;8.662;2022-07-23T18:14:23;3.20;;;2.00;;
21168;SDS011;10742;51.816;8.662;2022-07-23T18:17:45;3.08;;;1.73;;
21168;SDS011;10742;51.816;8.662;2022-07-23T18:21:07;3.08;;;2.00;;
21168;SDS011;10742;51.816;8.662;2022-07-23T18:24:28;3.70;;;2.20;;
21168;SDS011;10742;51.816;8.662;2022-07-23T18:27:50;2.28;;;2.00;;
21168;SDS011;10742;51.816;8.662;2022-07-23T18:31:11;3.92;;;1.80;;
21168;SDS011;10742;51.816;8.662;2022-07-23T18:34:33;4.00;;;2.00;;
21168;SDS011;10742;51.816;8.662;2022-07-23T18:37:54;4.63;;;1.80;;
21168;SDS011;10742;51.816;8.662;2022-07-23T18:41:16;3.67;;;2.08;;
21168;SDS011;10742;51.816;8.662;2022-07-23T18:44:37;3.72;;;1.80;;
21168;SDS011;10742;51.816;8.662;2022-07-23T18:47:58;3.22;;;2.05;;
21168;SDS011;10742;51.816;8.662;2022-07-23T18:51:20;4.10;;;1.80;;
21168;SDS011;10742;51.816;8.662;2022-07-23T18:54:41;4.30;;;2.10;;
21168;SDS011;10742;51.816;8.662;2022-07-23T18:58:03;4.75;;;2.00;;
21168;SDS011;10742;51.816;8.662;2022-07-23T19:01:25;5.55;;;2.00;;
21168;SDS011;10742;51.816;8.662;2022-07-23T19:04:50;2.78;;;1.90;;
21168;SDS011;10742;51.816;8.662;2022-07-23T19:08:13;3.58;;;2.10;;
21168;SDS011;10742;51.816;8.662;2022-07-23T19:11:34;1.90;;;1.70;;
21168;SDS011;10742;51.816;8.662;2022-07-23T19:14:57;3.53;;;2.05;;
21168;SDS011;10742;51.816;8.662;2022-07-23T19:18:20;4.25;;;2.05;;
21168;SDS011;10742;51.816;8.662;2022-07-23T19:21:42;2.78;;;1.88;;
21168;SDS011;10742;51.816;8.662;2022-07-23T19:25:03;3.10;;;1.90;;
21168;SDS011;10742;51.816;8.662;2022-07-23T19:28:27;3.33;;;2.00;;
21168;SDS011;10742;51.816;8.662;2022-07-23T19:31:48;4.38;;;2.28;;
21168;SDS011;10742;51.816;8.662;2022-07-23T19:35:09;3.70;;;2.20;;
21168;SDS011;10742;51.816;8.662;2022-07-23T19:38:31;3.13;;;2.50;;
21168;SDS011;10742;51.816;8.662;2022-07-23T19:41:52;4.22;;;2.78;;
21168;SDS011;10742;51.816;8.662;2022-07-23T19:45:13;4.22;;;2.75;;
21168;SDS011;10742;51.816;8.662;2022-07-23T19:48:35;6.55;;;2.47;;
21168;SDS011;10742;51.816;8.662;2022-07-23T19:51:57;8.00;;;2.75;;
21168;SDS011;10742;51.816;8.662;2022-07-23T19:55:20;5.43;;;2.65;;
21168;SDS011;10742;51.816;8.662;2022-07-23T19:58:42;4.47;;;2.40;;
21168;SDS011;10742;51.816;8.662;2022-07-23T20:02:03;4.72;;;2.35;;
21168;SDS011;10742;51.816;8.662;2022-07-23T20:05:24;4.28;;;2.30;;
21168;SDS011;10742;51.816;8.662;2022-07-23T20:08:46;4.90;;;2.13;;
21168;SDS011;10742;51.816;8.662;2022-07-23T20:12:07;2.58;;;2.20;;
21168;SDS011;10742;51.816;8.662;2022-07-23T20:15:29;6.22;;;2.38;;
21168;SDS011;10742;51.816;8.662;2022-07-23T20:18:52;2.85;;;2.22;;
21168;SDS011;10742;51.816;8.662;2022-07-23T20:22:13;3.88;;;2.47;;
21168;SDS011;10742;51.816;8.662;2022-07-23T20:25:34;2.67;;;2.42;;
21168;SDS011;10742;51.816;8.662;2022-07-23T20:28:58;6.10;;;2.60;;
21168;SDS011;10742;51.816;8.662;2022-07-23T20:32:20;4.10;;;2.53;;
21168;SDS011;10742;51.816;8.662;2022-07-23T20:35:42;2.85;;;2.15;;
21168;SDS011;10742;51.816;8.662;2022-07-23T20:39:04;3.22;;;2.28;;